Time;durP1;ratioP1;P1;durP2;ratioP2;P2;SDS_P1;SDS_P2;PMS_P1;PMS_P2;Temp;Humidity;BMP_temperature;BMP_pressure;BME280_temperature;BME280_humidity;BME280_pressure;Samples;Min_cycle;Max_cycle;Signal;HPM_P1;HPM_P2
2024/01/11 00:02:24;;;;;;;23.15;12.90;;;-4.30;99.90;;;;;;4990295;28;20041;-93
2024/01/11 00:04:50;;;;;;;24.40;13.82;;;-4.60;99.90;;;;;;4976295;28;20041;-93
2024/01/11 00:07:15;;;;;;;24.42;13.90;;;-4.20;99.90;;;;;;4975249;28;20040;-93
2024/01/11 00:09:42;;;;;;;21.77;12.50;;;-4.50;99.90;;;;;;4974255;28;20177;-94
2024/01/11 00:12:08;;;;;;;24.40;13.80;;;-2.70;99.90;;;;;;4990655;28;20092;-93
2024/01/11 00:14:35;;;;;;;24.42;13.65;;;-4.20;99.90;;;;;;4971951;28;20036;-93
2024/01/11 00:17:00;;;;;;;23.25;13.82;;;-3.60;99.90;;;;;;4959093;28;20041;-94
2024/01/11 00:19:26;;;;;;;25.63;14.80;;;-4.60;99.90;;;;;;4990141;28;20036;-94
2024/01/11 00:21:52;;;;;;;24.48;14.00;;;-3.70;99.90;;;;;;4992104;28;20045;-93
2024/01/11 00:24:18;;;;;;;24.70;13.23;;;-4.70;99.90;;;;;;4991211;28;20137;-93
2024/01/11 00:26:43;;;;;;;24.27;13.38;;;-3.60;99.90;;;;;;4976166;28;20049;-93
2024/01/11 00:29:09;;;;;;;25.20;14.27;;;-2.80;99.90;;;;;;4992381;28;20037;-92
2024/01/11 00:31:35;;;;;;;22.98;12.90;;;-4.60;99.90;;;;;;4983205;28;20500;-92
2024/01/11 00:34:01;;;;;;;22.90;13.25;;;-3.40;99.90;;;;;;4983382;28;20065;-93
2024/01/11 00:36:28;;;;;;;25.25;14.07;;;-2.90;99.90;;;;;;4975448;28;20046;-93
2024/01/11 00:38:54;;;;;;;24.13;12.75;;;-4.50;99.90;;;;;;5009232;28;20044;-92
2024/01/11 00:41:20;;;;;;;23.55;13.57;;;-4.60;99.90;;;;;;4991838;28;20038;-93
2024/01/11 00:43:46;;;;;;;21.58;12.43;;;-4.50;99.90;;;;;;4990595;28;20045;-93
2024/01/11 00:46:12;;;;;;;25.05;14.48;;;-4.60;99.90;;;;;;4984022;28;20388;-93
2024/01/11 00:48:37;;;;;;;22.65;12.60;;;-3.30;99.90;;;;;;4974622;28;20089;-93
2024/01/11 00:51:07;;;;;;;25.10;13.88;;;-3.80;99.90;;;;;;5007191;28;20042;-93
2024/01/11 00:53:33;;;;;;;22.98;13.32;;;-4.60;99.90;;;;;;4955465;28;20030;-93
2024/01/11 00:55:59;;;;;;;22.83;13.13;;;-3.90;99.90;;;;;;4986662;28;20503;-93
2024/01/11 00:58:25;;;;;;;22.90;13.18;;;-4.60;99.90;;;;;;4975100;28;20121;-93
2024/01/11 01:00:52;;;;;;;22.90;13.07;;;-4.60;99.90;;;;;;4976930;28;20138;-93
2024/01/11 01:03:19;;;;;;;21.55;11.70;;;-3.90;99.90;;;;;;4986072;28;20053;-93
2024/01/11 01:05:45;;;;;;;22.63;12.68;;;-3.50;99.90;;;;;;4966021;28;20084;-92
2024/01/11 01:08:11;;;;;;;23.60;13.25;;;-4.70;99.90;;;;;;4973640;28;20046;-93
2024/01/11 01:10:37;;;;;;;23.38;13.57;;;-3.70;99.90;;;;;;5007058;28;20030;-93
2024/01/11 01:13:03;;;;;;;23.30;13.65;;;-4.80;99.90;;;;;;4975778;28;20048;-92
2024/01/11 01:15:29;;;;;;;24.95;13.63;;;-4.70;99.90;;;;;;4974372;28;20037;-92
2024/01/11 01:17:55;;;;;;;21.40;12.68;;;-3.90;99.90;;;;;;4976584;28;20096;-94
2024/01/11 01:20:20;;;;;;;22.70;12.57;;;-4.70;99.90;;;;;;4977860;28;20740;-93
2024/01/11 01:22:46;;;;;;;22.25;12.85;;;-4.80;99.90;;;;;;4991230;28;20041;-93
2024/01/11 01:25:12;;;;;;;23.75;12.40;;;-3.40;99.90;;;;;;5007469;28;20122;-92
2024/01/11 01:27:37;;;;;;;22.02;12.82;;;-4.80;99.90;;;;;;5008960;28;20034;-92
2024/01/11 01:30:04;;;;;;;22.70;13.30;;;-4.80;99.90;;;;;;5006999;28;20041;-92
2024/01/11 01:32:30;;;;;;;21.50;12.57;;;-4.90;99.90;;;;;;4972879;28;20046;-93
2024/01/11 01:34:56;;;;;;;24.98;13.75;;;-5.40;99.90;;;;;;4990953;28;20162;-93
2024/01/11 01:37:21;;;;;;;22.20;12.65;;;-4.30;99.90;;;;;;4975267;28;20212;-93
2024/01/11 01:39:47;;;;;;;24.08;14.18;;;;;;;;;;5007377;28;20072;-92
2024/01/11 01:42:13;;;;;;;23.17;12.68;;;-4.90;99.90;;;;;;5006183;28;20495;-93
2024/01/11 01:44:41;;;;;;;22.52;14.00;;;-5.10;99.90;;;;;;4952943;28;20176;-94
2024/01/11 01:47:08;;;;;;;21.98;12.57;;;-4.80;99.90;;;;;;4989859;28;20380;-93
2024/01/11 01:49:36;;;;;;;21.80;12.68;;;-4.90;99.90;;;;;;4989971;28;20484;-94
2024/01/11 01:52:03;;;;;;;23.23;13.45;;;-5.00;99.90;;;;;;4972084;28;20038;-94
2024/01/11 01:54:29;;;;;;;22.80;13.25;;;-5.40;99.90;;;;;;4957742;28;20029;-94
2024/01/11 01:56:55;;;;;;;24.02;13.20;;;-5.10;99.90;;;;;;4958115;28;20099;-93
2024/01/11 01:59:22;;;;;;;24.25;12.77;;;-3.30;99.90;;;;;;4974954;28;20801;-94
2024/01/11 02:01:48;;;;;;;23.13;12.65;;;-4.00;99.90;;;;;;4985890;28;20034;-93
2024/01/11 02:04:15;;;;;;;24.45;13.32;;;-5.10;99.90;;;;;;4988171;28;20042;-94
2024/01/11 02:06:41;;;;;;;23.20;13.02;;;-3.00;99.90;;;;;;4975177;28;20053;-93
2024/01/11 02:09:09;;;;;;;23.13;12.68;;;-5.00;99.90;;;;;;4973528;28;20141;-93
2024/01/11 02:11:35;;;;;;;24.13;13.10;;;-5.00;99.90;;;;;;4977371;28;20068;-93
2024/01/11 02:14:00;;;;;;;23.63;13.02;;;-3.80;99.90;;;;;;4984499;28;20631;-93
2024/01/11 02:16:26;;;;;;;24.50;12.95;;;-5.00;99.90;;;;;;4975291;28;20388;-94
2024/01/11 02:18:52;;;;;;;25.08;13.52;;;-5.00;99.90;;;;;;4974232;28;20045;-93
2024/01/11 02:21:18;;;;;;;24.17;13.68;;;-4.30;99.90;;;;;;4977818;28;20573;-94
2024/01/11 02:23:46;;;;;;;23.85;13.60;;;-3.80;99.90;;;;;;4973522;28;20041;-93
2024/01/11 02:26:13;;;;;;;24.42;13.43;;;-4.10;99.90;;;;;;4985931;28;20117;-93
2024/01/11 02:28:43;;;;;;;23.98;13.55;;;-5.10;99.90;;;;;;5006437;28;20489;-93
2024/01/11 02:31:10;;;;;;;23.00;12.82;;;-5.00;99.90;;;;;;4988418;28;20064;-92
2024/01/11 02:33:36;;;;;;;24.65;13.70;;;-5.00;99.90;;;;;;4971671;28;20104;-92
2024/01/11 02:36:02;;;;;;;25.45;14.30;;;-5.00;99.90;;;;;;4991055;28;20046;-92
2024/01/11 02:38:28;;;;;;;27.33;14.75;;;-5.10;99.90;;;;;;4976171;28;20046;-92
2024/01/11 02:40:54;;;;;;;24.75;13.95;;;-5.00;99.90;;;;;;4989839;28;20076;-92
2024/01/11 02:43:20;;;;;;;27.10;14.98;;;-4.10;99.90;;;;;;4988073;28;20042;-93
2024/01/11 02:45:46;;;;;;;25.13;14.00;;;;;;;;;;4987913;28;20046;-92
2024/01/11 02:48:12;;;;;;;27.33;14.05;;;-5.00;99.90;;;;;;4990457;28;20111;-92
2024/01/11 02:50:37;;;;;;;25.42;13.35;;;-5.10;99.90;;;;;;4975169;28;20492;-93
2024/01/11 02:53:03;;;;;;;24.88;13.40;;;-5.10;99.90;;;;;;4973184;28;20089;-93
2024/01/11 02:55:29;;;;;;;24.92;13.77;;;-5.10;99.90;;;;;;4972773;28;20034;-94
2024/01/11 02:57:54;;;;;;;24.55;13.32;;;-5.00;99.90;;;;;;4974721;28;20495;-94
2024/01/11 03:00:20;;;;;;;25.77;14.68;;;-5.10;99.90;;;;;;4976127;28;20067;-93
2024/01/11 03:02:46;;;;;;;26.23;15.00;;;-5.00;99.90;;;;;;5007982;28;20041;-94
2024/01/11 03:05:11;;;;;;;23.60;12.75;;;-5.00;99.90;;;;;;4971254;28;20049;-95
2024/01/11 03:07:37;;;;;;;27.35;15.23;;;-5.00;99.90;;;;;;4984394;28;20476;-93
2024/01/11 03:10:03;;;;;;;27.55;14.05;;;-5.00;99.90;;;;;;4959609;28;20140;-93
2024/01/11 03:12:29;;;;;;;25.05;14.30;;;-5.00;99.90;;;;;;4957470;28;20418;-93
2024/01/11 03:14:54;;;;;;;27.33;15.27;;;-5.00;99.90;;;;;;4989303;28;20038;-92
2024/01/11 03:17:20;;;;;;;28.08;15.02;;;-4.90;99.90;;;;;;4974064;28;20522;-93
2024/01/11 03:19:46;;;;;;;26.17;13.88;;;-3.80;99.90;;;;;;4976522;28;20045;-94
2024/01/11 03:22:12;;;;;;;26.70;14.55;;;-3.20;99.90;;;;;;4993739;28;20077;-94
2024/01/11 03:24:41;;;;;;;27.40;14.40;;;-4.80;99.90;;;;;;4993614;28;20127;-93
2024/01/11 03:27:07;;;;;;;29.83;15.43;;;-4.70;99.90;;;;;;4991304;28;20038;-94
2024/01/11 03:29:33;;;;;;;28.08;14.98;;;-4.80;99.90;;;;;;4972659;28;20045;-93
2024/01/11 03:31:58;;;;;;;27.02;15.57;;;-4.80;99.90;;;;;;4985271;28;20038;-93
2024/01/11 03:34:24;;;;;;;27.08;14.40;;;-4.00;99.90;;;;;;4988338;28;20466;-93
2024/01/11 03:36:50;;;;;;;27.75;14.55;;;-3.20;99.90;;;;;;4975918;28;20045;-93
2024/01/11 03:39:15;;;;;;;25.05;13.55;;;-4.60;99.90;;;;;;4974175;28;20108;-93
2024/01/11 03:41:45;;;;;;;26.60;14.55;;;-4.50;99.90;;;;;;4989458;28;20040;-92
2024/01/11 03:44:11;;;;;;;27.67;14.10;;;-3.60;99.90;;;;;;4992235;28;20041;-94
2024/01/11 03:46:37;;;;;;;28.85;15.32;;;-4.00;99.90;;;;;;4987015;28;20049;-93
2024/01/11 03:49:02;;;;;;;29.30;15.02;;;-3.80;99.90;;;;;;4955020;28;20030;-93
2024/01/11 03:51:29;;;;;;;28.52;15.35;;;;;;;;;;4973266;28;20026;-93
2024/01/11 03:53:54;;;;;;;28.85;15.27;;;-4.30;99.90;;;;;;4992725;28;20053;-92
2024/01/11 03:56:20;;;;;;;28.35;14.85;;;-4.10;99.90;;;;;;4988457;28;20109;-92
2024/01/11 03:58:46;;;;;;;28.73;14.20;;;-4.10;99.90;;;;;;4976521;28;20100;-93
2024/01/11 04:01:11;;;;;;;30.13;16.20;;;-4.10;99.90;;;;;;4954270;28;20514;-93
2024/01/11 04:03:37;;;;;;;29.42;16.08;;;-4.00;99.90;;;;;;4975753;28;20042;-93
2024/01/11 04:06:03;;;;;;;28.58;15.38;;;-3.30;99.90;;;;;;4974126;28;20038;-94
2024/01/11 04:08:29;;;;;;;29.30;15.48;;;-3.90;99.90;;;;;;4976231;28;20035;-94
2024/01/11 04:10:55;;;;;;;29.75;15.18;;;;;;;;;;4979315;28;20042;-92
2024/01/11 04:13:21;;;;;;;28.67;15.88;;;-3.70;99.90;;;;;;5010680;28;20042;-93
2024/01/11 04:15:47;;;;;;;28.17;15.98;;;-3.90;99.90;;;;;;4978530;28;20057;-92
2024/01/11 04:18:14;;;;;;;28.48;15.25;;;-3.70;99.90;;;;;;4995659;28;20046;-94
2024/01/11 04:20:39;;;;;;;26.58;14.63;;;-3.80;99.90;;;;;;4978344;28;20390;-93
2024/01/11 04:23:05;;;;;;;29.83;16.58;;;-3.70;99.90;;;;;;4974373;28;20056;-93
2024/01/11 04:25:31;;;;;;;30.05;14.65;;;;;;;;;;5010353;28;20045;-92
2024/01/11 04:27:57;;;;;;;31.17;16.52;;;-3.60;99.90;;;;;;4993059;28;20061;-93
2024/01/11 04:30:22;;;;;;;30.83;16.17;;;-3.50;99.90;;;;;;4979489;28;20510;-92
2024/01/11 04:32:48;;;;;;;28.80;15.75;;;-3.50;99.90;;;;;;4986984;28;20496;-92
2024/01/11 04:35:14;;;;;;;28.77;15.77;;;;;;;;;;4993773;28;20108;-92
2024/01/11 04:37:40;;;;;;;30.80;15.75;;;-3.50;99.90;;;;;;4987618;28;20049;-93
2024/01/11 04:40:07;;;;;;;28.15;15.73;;;;;;;;;;4974916;28;20042;-93
2024/01/11 04:42:33;;;;;;;30.60;17.20;;;-3.40;99.90;;;;;;4995556;28;20045;-94
2024/01/11 04:44:59;;;;;;;29.30;15.52;;;-3.40;99.90;;;;;;4974985;28;20034;-94
2024/01/11 04:47:25;;;;;;;30.23;16.23;;;;;;;;;;4991035;28;20041;-93
2024/01/11 04:49:50;;;;;;;30.40;15.73;;;-3.30;99.90;;;;;;5011662;28;20406;-92
2024/01/11 04:52:16;;;;;;;28.48;16.02;;;-3.30;99.90;;;;;;4959200;28;20038;-92
2024/01/11 04:54:42;;;;;;;28.02;14.65;;;-3.20;99.90;;;;;;4990036;28;20101;-93
2024/01/11 04:57:07;;;;;;;28.48;15.02;;;-3.20;99.90;;;;;;4971793;28;20065;-91
2024/01/11 04:59:33;;;;;;;29.98;15.43;;;-2.00;99.90;;;;;;4975770;28;20053;-92
2024/01/11 05:01:59;;;;;;;29.92;17.02;;;-3.20;99.90;;;;;;4974481;28;20078;-91
2024/01/11 05:04:25;;;;;;;28.45;15.75;;;;;;;;;;4993175;28;20046;-92
2024/01/11 05:06:51;;;;;;;29.08;16.08;;;-3.10;99.90;;;;;;4994320;28;20092;-93
2024/01/11 05:09:17;;;;;;;30.27;16.83;;;-3.10;99.90;;;;;;4989267;28;20044;-92
2024/01/11 05:11:43;;;;;;;30.23;16.05;;;-3.10;99.90;;;;;;4989783;28;20133;-92
2024/01/11 05:14:08;;;;;;;29.65;16.45;;;-2.60;99.90;;;;;;4958504;28;20037;-92
2024/01/11 05:16:35;;;;;;;28.80;14.82;;;-2.70;99.90;;;;;;4991748;28;20552;-93
2024/01/11 05:19:01;;;;;;;28.73;16.25;;;-2.90;99.90;;;;;;4976542;28;20069;-93
2024/01/11 05:21:27;;;;;;;28.35;15.48;;;-2.90;99.90;;;;;;4976717;28;20058;-93
2024/01/11 05:23:52;;;;;;;29.73;15.63;;;-2.80;99.90;;;;;;4988794;28;20037;-91
2024/01/11 05:26:19;;;;;;;29.80;16.83;;;-2.80;99.90;;;;;;4975540;28;20547;-93
2024/01/11 05:28:45;;;;;;;28.63;15.95;;;-2.80;99.90;;;;;;4976985;28;20427;-92
2024/01/11 05:31:14;;;;;;;29.13;15.70;;;-2.60;99.90;;;;;;4989328;28;20040;-92
2024/01/11 05:33:40;;;;;;;30.08;16.23;;;-2.70;99.90;;;;;;4973211;28;20134;-92
2024/01/11 05:36:06;;;;;;;28.88;14.45;;;-2.60;99.90;;;;;;4976173;28;20116;-92
2024/01/11 05:38:33;;;;;;;29.52;16.40;;;-2.60;99.90;;;;;;4968586;28;20453;-92
2024/01/11 05:40:58;;;;;;;28.30;15.50;;;-2.40;99.90;;;;;;5006313;28;20038;-94
2024/01/11 05:43:24;;;;;;;29.23;16.38;;;-2.50;99.90;;;;;;4968830;28;20040;-92
2024/01/11 05:45:51;;;;;;;28.08;15.13;;;;;;;;;;4989803;28;20053;-92
2024/01/11 05:48:17;;;;;;;27.90;15.68;;;-2.30;99.90;;;;;;4968147;28;20057;-92
2024/01/11 05:50:49;;;;;;;31.02;16.17;;;-2.20;99.90;;;;;;4989056;28;20049;-91
2024/01/11 05:53:15;;;;;;;30.83;15.95;;;-2.10;99.90;;;;;;4989531;28;20257;-92
2024/01/11 05:55:41;;;;;;;30.70;16.70;;;-2.20;99.90;;;;;;5004212;28;20049;-92
2024/01/11 05:58:07;;;;;;;31.05;17.05;;;-2.20;99.90;;;;;;4985569;28;20046;-92
2024/01/11 06:00:32;;;;;;;29.15;15.48;;;-2.20;99.90;;;;;;4989895;28;20051;-93
2024/01/11 06:02:58;;;;;;;29.42;15.82;;;-2.20;99.90;;;;;;4986167;28;20124;-92
2024/01/11 06:05:27;;;;;;;29.35;15.18;;;;;;;;;;4980379;28;20057;-93
2024/01/11 06:07:53;;;;;;;28.23;15.20;;;-2.20;99.90;;;;;;4989606;28;20049;-93
2024/01/11 06:10:18;;;;;;;28.48;15.82;;;-2.10;99.90;;;;;;4969024;28;20042;-93
2024/01/11 06:12:45;;;;;;;27.98;15.00;;;;;;;;;;4958310;28;20053;-94
2024/01/11 06:15:10;;;;;;;26.98;15.40;;;-2.10;99.90;;;;;;4984967;28;20498;-94
2024/01/11 06:17:36;;;;;;;28.23;15.05;;;-2.00;99.90;;;;;;4969922;28;20057;-92
2024/01/11 06:20:03;;;;;;;26.10;13.90;;;-2.00;99.90;;;;;;4968065;28;20654;-91
2024/01/11 06:22:29;;;;;;;27.60;15.23;;;-1.90;99.90;;;;;;4987453;28;20041;-93
2024/01/11 06:24:55;;;;;;;28.83;15.35;;;;;;;;;;4982039;28;20053;-93
2024/01/11 06:27:21;;;;;;;26.55;15.35;;;-1.80;99.90;;;;;;4984277;28;20400;-90
2024/01/11 06:29:46;;;;;;;27.85;15.32;;;-2.10;99.90;;;;;;4984306;28;20034;-91
2024/01/11 06:32:12;;;;;;;28.27;15.85;;;-1.90;99.90;;;;;;4970648;28;20022;-91
2024/01/11 06:34:38;;;;;;;27.13;15.40;;;-1.80;99.90;;;;;;4971850;28;20287;-90
2024/01/11 06:37:04;;;;;;;26.85;14.20;;;-1.70;99.90;;;;;;4970372;28;20516;-90
2024/01/11 06:39:29;;;;;;;27.55;15.18;;;-1.70;99.90;;;;;;4962808;28;20057;-90
2024/01/11 06:41:55;;;;;;;28.08;15.73;;;-0.40;99.90;;;;;;4964111;28;20451;-90
2024/01/11 06:44:21;;;;;;;26.92;14.50;;;-1.10;99.90;;;;;;4968852;28;20507;-92
2024/01/11 06:46:47;;;;;;;26.02;14.00;;;-1.70;99.90;;;;;;4983840;28;20041;-91
2024/01/11 06:49:13;;;;;;;30.55;16.38;;;-1.60;99.90;;;;;;4971791;28;20034;-90
2024/01/11 06:51:39;;;;;;;27.42;14.98;;;;;;;;;;4970522;28;20065;-91
2024/01/11 06:54:05;;;;;;;28.35;16.17;;;-1.50;99.90;;;;;;4971216;28;20033;-92
2024/01/11 06:56:30;;;;;;;28.17;14.95;;;-1.60;99.90;;;;;;4983544;28;20049;-92
2024/01/11 06:58:57;;;;;;;28.33;14.90;;;;;;;;;;4955637;28;20041;-90
2024/01/11 07:01:23;;;;;;;28.10;14.38;;;;;;;;;;4988079;28;20042;-91
2024/01/11 07:03:49;;;;;;;25.40;14.95;;;-1.40;99.90;;;;;;4986182;28;20041;-92
2024/01/11 07:06:15;;;;;;;26.92;14.35;;;-1.50;99.90;;;;;;4971919;28;20384;-91
2024/01/11 07:08:41;;;;;;;27.45;15.15;;;-1.40;99.90;;;;;;4970376;28;20050;-90
2024/01/11 07:11:07;;;;;;;25.83;13.75;;;-1.50;99.90;;;;;;4966679;28;20041;-90
2024/01/11 07:13:33;;;;;;;27.98;15.70;;;0.30;99.90;;;;;;4991137;28;20495;-95
2024/01/11 07:15:59;;;;;;;26.77;14.73;;;-1.40;99.90;;;;;;4970824;28;20463;-91
2024/01/11 07:18:25;;;;;;;26.25;14.07;;;-1.30;99.90;;;;;;4973237;28;20044;-92
2024/01/11 07:20:52;;;;;;;27.65;15.20;;;-1.30;99.90;;;;;;4978682;28;20050;-95
2024/01/11 07:23:18;;;;;;;25.35;13.77;;;-1.40;99.90;;;;;;4991124;28;20049;-94
2024/01/11 07:25:44;;;;;;;24.63;13.98;;;-1.20;99.90;;;;;;4991430;28;20045;-95
2024/01/11 07:28:10;;;;;;;26.20;14.48;;;-1.20;99.90;;;;;;4975383;28;20042;-93
2024/01/11 07:30:35;;;;;;;22.95;13.45;;;-1.10;99.90;;;;;;4953866;28;20045;-91
2024/01/11 07:33:02;;;;;;;23.25;13.05;;;-1.20;99.90;;;;;;4972725;28;20133;-94
2024/01/11 07:35:27;;;;;;;23.40;13.48;;;-1.20;99.90;;;;;;4982995;28;20074;-92
2024/01/11 07:37:54;;;;;;;23.52;14.18;;;;;;;;;;4974705;28;20261;-91
2024/01/11 07:40:26;;;;;;;25.08;13.48;;;-1.10;99.90;;;;;;4988776;28;20128;-94
2024/01/11 07:42:51;;;;;;;23.05;12.68;;;-1.10;99.90;;;;;;4974125;28;20120;-94
2024/01/11 07:45:18;;;;;;;25.08;13.18;;;-1.00;99.90;;;;;;4974816;28;20546;-91
2024/01/11 07:47:44;;;;;;;22.08;12.68;;;-1.00;99.90;;;;;;4972649;28;20046;-93
2024/01/11 07:50:10;;;;;;;24.88;13.38;;;-0.80;99.90;;;;;;4972251;28;20038;-89
2024/01/11 07:52:36;;;;;;;25.02;13.82;;;0.30;99.90;;;;;;4975234;28;20034;-94
2024/01/11 07:55:07;;;;;;;25.45;13.95;;;-0.80;99.90;;;;;;4989062;28;20103;-89
2024/01/11 07:57:37;;;;;;;23.73;13.00;;;-0.80;99.90;;;;;;5000977;28;20044;-90
2024/01/11 08:00:06;;;;;;;24.15;13.32;;;-0.70;99.90;;;;;;4983235;28;20084;-91
2024/01/11 08:02:33;;;;;;;25.65;13.93;;;-0.80;99.90;;;;;;4976570;28;20105;-93
2024/01/11 08:05:04;;;;;;;24.98;13.75;;;-0.80;99.90;;;;;;4983922;28;20030;-92
2024/01/11 08:07:30;;;;;;;25.58;13.70;;;-0.80;99.90;;;;;;4989026;28;20038;-91
2024/01/11 08:09:56;;;;;;;26.10;15.35;;;1.60;99.90;;;;;;4974949;28;20116;-91
2024/01/11 08:12:22;;;;;;;28.77;15.63;;;-0.70;99.90;;;;;;4985906;28;20046;-93
2024/01/11 08:14:48;;;;;;;27.58;14.80;;;-0.70;99.90;;;;;;4975247;28;20064;-93
2024/01/11 08:17:14;;;;;;;27.50;15.70;;;;;;;;;;4972051;28;20046;-94
2024/01/11 08:19:42;;;;;;;28.00;15.77;;;-0.60;99.90;;;;;;4972994;28;20204;-91
2024/01/11 08:22:08;;;;;;;26.60;13.88;;;0.90;99.90;;;;;;5004257;28;20069;-93
2024/01/11 08:24:35;;;;;;;26.45;15.20;;;-0.50;99.90;;;;;;4988710;28;20038;-93
2024/01/11 08:27:04;;;;;;;27.02;14.55;;;-0.60;99.90;;;;;;4982480;28;20038;-94
2024/01/11 08:29:29;;;;;;;25.08;15.07;;;-0.50;99.90;;;;;;4969659;28;20037;-90
2024/01/11 08:31:56;;;;;;;25.27;14.38;;;-0.50;99.90;;;;;;5007948;28;20038;-94
2024/01/11 08:34:22;;;;;;;24.92;13.63;;;-0.50;99.90;;;;;;4986832;28;20045;-94
2024/01/11 08:36:48;;;;;;;26.10;14.65;;;-0.50;99.90;;;;;;4960403;28;20197;-92
2024/01/11 08:39:16;;;;;;;23.92;13.75;;;-0.80;99.90;;;;;;4987707;28;20125;-91
2024/01/11 08:41:42;;;;;;;28.08;16.05;;;-0.30;99.90;;;;;;4973227;28;20042;-92
2024/01/11 08:44:09;;;;;;;26.58;14.35;;;-0.30;99.90;;;;;;4972547;28;20026;-93
2024/01/11 08:46:35;;;;;;;24.27;13.63;;;-0.30;99.90;;;;;;4973693;28;20046;-93
2024/01/11 08:49:03;;;;;;;24.42;13.90;;;-0.40;99.90;;;;;;4986473;28;20041;-95
2024/01/11 08:51:29;;;;;;;25.08;14.32;;;-0.20;99.90;;;;;;4968434;28;20042;-91
2024/01/11 08:53:55;;;;;;;28.05;15.07;;;-0.20;99.90;;;;;;4988260;28;20502;-92
2024/01/11 08:56:21;;;;;;;26.42;14.02;;;-0.10;99.90;;;;;;4993676;28;20068;-94
2024/01/11 08:58:48;;;;;;;24.88;14.02;;;-0.10;99.90;;;;;;4986926;28;20388;-90
2024/01/11 09:01:14;;;;;;;24.92;13.43;;;-0.10;99.90;;;;;;4972797;28;20038;-90
2024/01/11 09:03:40;;;;;;;27.30;14.75;;;-0.10;99.90;;;;;;4986577;28;20551;-93
2024/01/11 09:06:06;;;;;;;26.63;15.25;;;0.00;99.90;;;;;;4986797;28;20204;-91
2024/01/11 09:08:32;;;;;;;25.50;14.18;;;;;;;;;;4972063;28;20038;-92
2024/01/11 09:10:59;;;;;;;25.17;14.65;;;0.10;99.90;;;;;;4968821;28;20031;-90
2024/01/11 09:13:25;;;;;;;26.00;14.65;;;1.60;99.90;;;;;;4972096;28;20037;-89
2024/01/11 09:15:52;;;;;;;26.50;15.18;;;0.10;99.90;;;;;;4972090;28;20136;-91
2024/01/11 09:18:18;;;;;;;27.48;14.60;;;0.10;99.90;;;;;;5000634;28;20054;-90
2024/01/11 09:20:44;;;;;;;26.25;14.88;;;0.40;99.90;;;;;;4984430;28;20034;-91
2024/01/11 09:23:28;;;;;;;26.10;14.80;;;0.80;99.90;;;;;;4988793;28;20050;-95
2024/01/11 09:25:54;;;;;;;26.35;14.48;;;0.20;99.90;;;;;;4984532;28;20594;-93
2024/01/11 09:28:26;;;;;;;26.58;14.30;;;0.30;99.90;;;;;;4992495;28;20038;-96
2024/01/11 09:30:52;;;;;;;25.83;14.60;;;0.30;99.90;;;;;;4976115;28;20034;-94
2024/01/11 09:33:18;;;;;;;23.50;13.50;;;;;;;;;;4989570;28;20042;-96
2024/01/11 09:35:43;;;;;;;25.38;13.73;;;0.30;99.90;;;;;;4970912;28;20042;-91
2024/01/11 09:38:10;;;;;;;24.60;13.32;;;;;;;;;;4972124;28;20042;-93
2024/01/11 09:40:37;;;;;;;22.90;12.90;;;0.50;99.90;;;;;;4986381;28;20042;-92
2024/01/11 09:43:04;;;;;;;25.88;14.15;;;;;;;;;;4953052;28;20133;-92
2024/01/11 09:45:30;;;;;;;23.00;13.32;;;0.60;99.90;;;;;;4968160;28;20117;-91
2024/01/11 09:47:55;;;;;;;25.92;14.70;;;0.50;99.90;;;;;;4972746;28;20117;-94
2024/01/11 09:50:23;;;;;;;25.98;13.85;;;2.20;99.90;;;;;;4975150;28;20038;-93
2024/01/11 09:52:50;;;;;;;23.60;13.63;;;0.60;99.90;;;;;;4980489;28;20046;-92
2024/01/11 09:55:17;;;;;;;26.50;15.13;;;;;;;;;;4990579;28;20536;-96
2024/01/11 09:57:52;;;;;;;25.42;14.43;;;0.70;99.90;;;;;;4988827;28;20046;-96
2024/01/11 10:00:22;;;;;;;23.98;13.48;;;0.70;99.90;;;;;;4984996;28;20191;-96
2024/01/11 10:02:48;;;;;;;23.02;13.48;;;0.70;99.90;;;;;;5002584;28;20396;-93
2024/01/11 10:05:14;;;;;;;25.08;14.23;;;1.30;99.90;;;;;;4973278;28;20038;-96
2024/01/11 10:07:40;;;;;;;26.95;14.60;;;0.70;99.90;;;;;;4990225;28;20038;-96
2024/01/11 10:10:07;;;;;;;23.00;12.32;;;0.80;99.90;;;;;;4971485;28;20140;-93
2024/01/11 10:12:38;;;;;;;23.17;12.88;;;0.80;99.90;;;;;;4971981;28;20048;-96
2024/01/11 10:15:11;;;;;;;23.73;13.13;;;0.80;99.90;;;;;;4972454;28;20482;-92
2024/01/11 10:17:44;;;;;;;23.85;12.63;;;0.70;99.90;;;;;;4970769;28;20523;-95
2024/01/11 10:20:13;;;;;;;22.25;13.40;;;0.80;99.90;;;;;;5001914;28;20081;-91
2024/01/11 10:22:40;;;;;;;22.88;12.82;;;0.90;99.90;;;;;;4987092;28;20192;-92
2024/01/11 10:25:17;;;;;;;24.13;13.57;;;0.40;99.90;;;;;;4970806;28;20045;-93
2024/01/11 10:27:45;;;;;;;24.30;14.00;;;0.80;99.90;;;;;;4991267;28;20050;-96
2024/01/11 10:30:17;;;;;;;21.70;12.38;;;1.00;99.90;;;;;;4995219;28;20061;-96
2024/01/11 10:32:47;;;;;;;22.58;13.43;;;1.10;99.90;;;;;;5020912;22;20073;-84
2024/01/11 10:35:13;;;;;;;25.55;13.15;;;3.10;99.90;;;;;;5047623;28;20041;-84
2024/01/11 10:37:39;;;;;;;21.95;12.43;;;1.30;99.90;;;;;;5008624;28;20045;-84
2024/01/11 10:40:10;;;;;;;24.30;13.35;;;1.00;99.90;;;;;;5041539;28;20120;-84
2024/01/11 10:42:45;;;;;;;21.20;12.30;;;1.00;99.90;;;;;;5018553;28;20033;-85
2024/01/11 10:45:18;;;;;;;22.63;12.27;;;1.20;99.90;;;;;;5025063;28;20045;-84
2024/01/11 10:47:54;;;;;;;21.25;11.68;;;1.10;99.90;;;;;;5013192;28;20068;-84
2024/01/11 10:50:21;;;;;;;22.65;12.85;;;1.20;99.90;;;;;;5047262;28;20037;-84
2024/01/11 10:53:19;;;;;;;21.75;11.45;;;1.30;99.90;;;;;;5019475;28;20056;-85
2024/01/11 10:55:47;;;;;;;21.52;12.32;;;1.30;99.90;;;;;;5020277;28;20047;-84
2024/01/11 10:58:15;;;;;;;20.65;12.02;;;1.20;99.90;;;;;;5040215;28;20037;-85
2024/01/11 11:00:41;;;;;;;22.17;12.18;;;2.00;99.90;;;;;;5036073;28;20087;-85
2024/01/11 11:03:08;;;;;;;21.48;11.65;;;3.20;99.90;;;;;;5001725;28;20075;-82
2024/01/11 11:05:38;;;;;;;23.80;12.15;;;1.60;99.90;;;;;;5007968;28;20144;-83
2024/01/11 11:08:05;;;;;;;20.60;11.65;;;1.40;99.90;;;;;;5014045;28;20475;-83
2024/01/11 11:10:34;;;;;;;21.63;12.05;;;1.40;99.90;;;;;;5025170;28;20045;-83
2024/01/11 11:13:00;;;;;;;20.90;11.80;;;2.70;99.90;;;;;;5007779;28;20049;-83
2024/01/11 11:15:28;;;;;;;21.38;12.15;;;1.40;99.90;;;;;;5032673;28;20044;-83
2024/01/11 11:17:54;;;;;;;19.90;11.07;;;1.40;99.90;;;;;;5026317;28;20037;-84
2024/01/11 11:20:20;;;;;;;21.65;12.38;;;1.40;99.90;;;;;;5034384;28;20704;-84
2024/01/11 11:23:04;;;;;;;23.02;12.85;;;2.60;99.90;;;;;;5027856;28;20147;-84
2024/01/11 11:25:30;;;;;;;22.70;12.02;;;1.40;99.90;;;;;;5018884;28;20025;-84
2024/01/11 11:27:57;;;;;;;21.85;12.20;;;2.00;99.90;;;;;;5021173;28;20034;-84
2024/01/11 11:30:23;;;;;;;20.80;11.88;;;3.40;99.90;;;;;;5018142;28;20063;-84
2024/01/11 11:32:49;;;;;;;22.02;12.63;;;1.60;99.90;;;;;;5016803;28;20049;-84
2024/01/11 11:35:14;;;;;;;21.27;12.77;;;1.50;99.90;;;;;;5029246;28;20048;-85
2024/01/11 11:37:40;;;;;;;21.85;12.35;;;1.60;99.90;;;;;;5021013;28;20052;-84
2024/01/11 11:40:12;;;;;;;22.13;12.40;;;1.50;99.90;;;;;;5018631;28;20037;-84
2024/01/11 11:42:40;;;;;;;21.00;11.85;;;1.60;99.90;;;;;;5027280;28;20438;-85
2024/01/11 11:45:07;;;;;;;22.90;12.80;;;1.60;99.90;;;;;;5046980;28;20069;-85
2024/01/11 11:47:38;;;;;;;21.45;12.35;;;1.60;99.90;;;;;;5034065;28;20391;-85
2024/01/11 11:50:07;;;;;;;20.75;12.13;;;1.70;99.90;;;;;;5045043;28;21411;-85
2024/01/11 11:52:37;;;;;;;21.23;11.68;;;1.60;99.90;;;;;;5026749;28;20022;-85
2024/01/11 11:55:03;;;;;;;22.48;12.55;;;1.60;99.90;;;;;;5033197;28;20046;-85
2024/01/11 11:57:29;;;;;;;21.98;12.80;;;1.60;99.90;;;;;;5023254;28;20040;-87
2024/01/11 12:00:02;;;;;;;22.00;12.02;;;1.50;99.90;;;;;;5004708;28;21045;-84
2024/01/11 12:02:28;;;;;;;23.05;12.85;;;1.60;99.90;;;;;;5040092;28;20049;-85
2024/01/11 12:04:54;;;;;;;22.20;11.98;;;1.50;99.90;;;;;;5030568;28;20045;-85
2024/01/11 12:07:21;;;;;;;23.08;12.38;;;1.50;99.90;;;;;;5030039;28;20042;-85
2024/01/11 12:09:47;;;;;;;20.80;11.65;;;1.60;99.90;;;;;;5027892;28;20559;-85
2024/01/11 12:12:13;;;;;;;22.83;12.05;;;1.50;99.90;;;;;;4994384;28;20040;-85
2024/01/11 12:14:39;;;;;;;20.65;11.98;;;2.60;99.90;;;;;;5031907;28;20821;-85
2024/01/11 12:17:06;;;;;;;22.05;11.82;;;2.00;99.90;;;;;;5031605;28;20037;-85
2024/01/11 12:19:32;;;;;;;22.73;11.88;;;2.10;99.90;;;;;;5012823;28;20131;-85
2024/01/11 12:21:58;;;;;;;21.60;12.05;;;2.20;99.90;;;;;;5030300;28;20438;-86
2024/01/11 12:24:24;;;;;;;23.63;12.38;;;3.20;99.90;;;;;;5013098;28;20460;-86
2024/01/11 12:26:50;;;;;;;22.13;11.65;;;1.60;99.90;;;;;;5029876;28;20076;-85
2024/01/11 12:29:18;;;;;;;23.10;12.43;;;1.70;99.90;;;;;;5014060;28;20049;-85
2024/01/11 12:31:44;;;;;;;21.98;11.85;;;3.20;99.90;;;;;;5029638;28;20056;-85
2024/01/11 12:34:12;;;;;;;20.90;11.32;;;3.20;99.90;;;;;;4992506;28;20116;-86
2024/01/11 12:36:38;;;;;;;20.23;11.63;;;2.50;99.90;;;;;;5028446;28;20047;-85